Portada
METAR-TAF:

METAR-TAF

Aeroports :

Dubai World Central International Airport

Dubai, Emirats Àrabs Units

latitud: 24-53-49N, longitud: 55-09-40E, altitud: 35 m

Observació

L'informe es va fer fa 44 minuts, a les 00:00 UTC
Vent 5 kt del Sud
Temperatura 16°C
Humitat 77%
Pressió 1017 hPa
Visibilitat 10 km o més
sense núvols per sota de 1500 mi sense presència de cumulonimbus.

METAR: OMDW 220000Z 18005KT CAVOK 16/12 Q1017 NOSIG

Hora: 04:44 (00:44 UTC)

Pronòstic

L'informe es va fer fa 1 hora i 51 minuts, a les 22:53 UTC
Pronòstic vàlid del 22 a les 00 UTC al 23 a les 06 UTC
Vent 5 kt del Sud
Visibilitat: 8000 m
Escasses núvols a una alçada de 4000 ft
Evolucionant progressivament
l' 22 a les 08 UTC al 22 a les 10 UTC
Vent 14 kt del Nord
Evolucionant progressivament
l' 22 a les 16 UTC al 22 a les 18 UTC
Vent 5 kt del Est/Nord-Est

TAF: OMDW 212253Z 2200/2306 18005KT 8000 FEW040 BECMG 2208/2210 36014KT BECMG 2216/2218 07005KT

Observacions i pronòstics meteorològics de més de 4000 aeroports (METAR i TAF).

Les estacions disponibles són els punts grocs i vermells al mapa.

Posi el ratolí al punt desitjat per veure el nom de l'estació.

Feu clic per veure les observacions i els pronòstics meteorològics.

Per canviar el mapa: feu clic els botons verds amb una creu de color negre per apropar; al botó verd amb un guió per allunyar la imatge; o en les fletxes verdes per a mapes adjacents.


METAR-TAF: